sensor_id;sensor_type;location;lat;lon;timestamp;pressure;altitude;pressure_sealevel;temperature;humidity
44079;BME280;29744;49.078;12.878;2023-04-05T00:00:33;96938.13;;;14.81;32.91
44079;BME280;29744;49.078;12.878;2023-04-05T00:05:33;96936.84;;;14.78;32.90
44079;BME280;29744;49.078;12.878;2023-04-05T00:10:38;96927.47;;;14.76;33.15
44079;BME280;29744;49.078;12.878;2023-04-05T00:15:38;96926.97;;;14.74;33.23
44079;BME280;29744;49.078;12.878;2023-04-05T00:20:39;96919.50;;;14.71;32.94
44079;BME280;29744;49.078;12.878;2023-04-05T00:25:39;96930.94;;;14.68;32.87
44079;BME280;29744;49.078;12.878;2023-04-05T00:30:39;96916.16;;;14.65;33.09
44079;BME280;29744;49.078;12.878;2023-04-05T00:40:40;96910.91;;;14.60;33.31
44079;BME280;29744;49.078;12.878;2023-04-05T00:45:40;96911.53;;;14.57;32.94
44079;BME280;29744;49.078;12.878;2023-04-05T00:50:42;96899.44;;;14.55;33.42
44079;BME280;29744;49.078;12.878;2023-04-05T00:55:43;96898.97;;;14.53;33.26
44079;BME280;29744;49.078;12.878;2023-04-05T01:11:17;96889.72;;;14.45;33.44
44079;BME280;29744;49.078;12.878;2023-04-05T01:16:18;96881.47;;;14.41;33.46
44079;BME280;29744;49.078;12.878;2023-04-05T01:26:45;96883.19;;;14.37;33.32
44079;BME280;29744;49.078;12.878;2023-04-05T01:37:30;96875.53;;;14.31;33.75
44079;BME280;29744;49.078;12.878;2023-04-05T01:42:31;96875.84;;;14.29;33.88
44079;BME280;29744;49.078;12.878;2023-04-05T01:47:32;96869.97;;;14.27;33.58
44079;BME280;29744;49.078;12.878;2023-04-05T01:52:32;96865.69;;;14.26;33.42
44079;BME280;29744;49.078;12.878;2023-04-05T01:57:32;96870.59;;;14.24;33.35
44079;BME280;29744;49.078;12.878;2023-04-05T02:02:32;96863.88;;;14.22;33.76
44079;BME280;29744;49.078;12.878;2023-04-05T02:07:33;96863.09;;;14.21;33.57
44079;BME280;29744;49.078;12.878;2023-04-05T02:12:33;96855.31;;;14.19;33.55
44079;BME280;29744;49.078;12.878;2023-04-05T02:17:33;96849.44;;;14.17;33.97
44079;BME280;29744;49.078;12.878;2023-04-05T02:22:39;96851.66;;;14.15;33.66
44079;BME280;29744;49.078;12.878;2023-04-05T02:27:40;96857.34;;;14.14;33.72
44079;BME280;29744;49.078;12.878;2023-04-05T02:32:40;96848.78;;;14.12;34.01
44079;BME280;29744;49.078;12.878;2023-04-05T02:37:44;96844.47;;;14.11;33.64
44079;BME280;29744;49.078;12.878;2023-04-05T02:42:45;96842.09;;;14.09;33.94
44079;BME280;29744;49.078;12.878;2023-04-05T02:47:45;96838.59;;;14.09;33.89
44079;BME280;29744;49.078;12.878;2023-04-05T02:52:46;96838.13;;;14.07;33.60
44079;BME280;29744;49.078;12.878;2023-04-05T02:57:47;96843.81;;;14.05;33.49
44079;BME280;29744;49.078;12.878;2023-04-05T03:02:47;96833.34;;;14.04;33.96
44079;BME280;29744;49.078;12.878;2023-04-05T03:07:47;96839.84;;;14.03;34.12
44079;BME280;29744;49.078;12.878;2023-04-05T03:12:49;96834.75;;;14.01;33.91
44079;BME280;29744;49.078;12.878;2023-04-05T03:17:50;96828.88;;;13.99;34.04
44079;BME280;29744;49.078;12.878;2023-04-05T03:22:50;96824.91;;;13.97;33.99
44079;BME280;29744;49.078;12.878;2023-04-05T03:27:51;96824.13;;;13.96;34.06
44079;BME280;29744;49.078;12.878;2023-04-05T03:32:52;96824.41;;;13.95;34.23
44079;BME280;29744;49.078;12.878;2023-04-05T03:37:52;96829.31;;;13.93;34.17
44079;BME280;29744;49.078;12.878;2023-04-05T03:42:52;96816.66;;;13.93;34.25
44079;BME280;29744;49.078;12.878;2023-04-05T03:47:53;96824.72;;;13.93;34.07
44079;BME280;29744;49.078;12.878;2023-04-05T03:52:54;96819.22;;;13.98;33.75
44079;BME280;29744;49.078;12.878;2023-04-05T03:57:54;96823.34;;;14.04;33.68
44079;BME280;29744;49.078;12.878;2023-04-05T04:02:55;96830.69;;;14.12;33.80
44079;BME280;29744;49.078;12.878;2023-04-05T04:07:55;96823.16;;;14.23;34.00
44079;BME280;29744;49.078;12.878;2023-04-05T04:12:55;96824.44;;;14.34;34.02
44079;BME280;29744;49.078;12.878;2023-04-05T04:17:55;96817.84;;;14.49;33.65
44079;BME280;29744;49.078;12.878;2023-04-05T04:27:57;96814.56;;;14.78;33.92
44079;BME280;29744;49.078;12.878;2023-04-05T04:32:57;96816.78;;;14.93;33.99
44079;BME280;29744;49.078;12.878;2023-04-05T04:37:59;96814.44;;;15.09;33.71
44079;BME280;29744;49.078;12.878;2023-04-05T04:43:00;96814.75;;;15.25;33.42
44079;BME280;29744;49.078;12.878;2023-04-05T04:48:00;96816.66;;;15.41;33.67
44079;BME280;29744;49.078;12.878;2023-04-05T04:53:03;96811.88;;;15.56;33.38
44079;BME280;29744;49.078;12.878;2023-04-05T04:58:04;96821.06;;;15.72;33.00
44079;BME280;29744;49.078;12.878;2023-04-05T05:03:09;96824.72;;;15.85;32.87
44079;BME280;29744;49.078;12.878;2023-04-05T05:08:13;96819.09;;;15.98;33.25
44079;BME280;29744;49.078;12.878;2023-04-05T05:13:13;96818.75;;;16.08;32.82
44079;BME280;29744;49.078;12.878;2023-04-05T05:18:14;96828.41;;;16.18;33.12
44079;BME280;29744;49.078;12.878;2023-04-05T05:23:15;96816.28;;;16.24;32.90
44079;BME280;29744;49.078;12.878;2023-04-05T05:28:15;96819.28;;;16.31;32.76
44079;BME280;29744;49.078;12.878;2023-04-05T05:33:15;96822.94;;;16.35;32.73
44079;BME280;29744;49.078;12.878;2023-04-05T05:38:17;96829.59;;;16.38;32.76
44079;BME280;29744;49.078;12.878;2023-04-05T05:43:17;96821.94;;;16.40;32.38
44079;BME280;29744;49.078;12.878;2023-04-05T05:48:19;96828.97;;;16.41;32.65
44079;BME280;29744;49.078;12.878;2023-04-05T05:53:20;96823.56;;;16.41;32.45
44079;BME280;29744;49.078;12.878;2023-04-05T05:58:20;96823.56;;;16.41;32.38
44079;BME280;29744;49.078;12.878;2023-04-05T06:03:20;96827.34;;;16.40;32.81
44079;BME280;29744;49.078;12.878;2023-04-05T06:08:24;96818.78;;;16.38;32.42
44079;BME280;29744;49.078;12.878;2023-04-05T06:13:26;96829.13;;;16.36;32.32
44079;BME280;29744;49.078;12.878;2023-04-05T06:18:26;96831.38;;;16.34;32.60
44079;BME280;29744;49.078;12.878;2023-04-05T06:23:27;96825.03;;;16.30;32.74
44079;BME280;29744;49.078;12.878;2023-04-05T06:28:28;96822.16;;;16.26;32.60
44079;BME280;29744;49.078;12.878;2023-04-05T06:33:28;96825.06;;;16.21;32.80
44079;BME280;29744;49.078;12.878;2023-04-05T06:38:28;96825.72;;;16.18;32.50
44079;BME280;29744;49.078;12.878;2023-04-05T06:43:29;96830.97;;;16.15;32.60
44079;BME280;29744;49.078;12.878;2023-04-05T06:48:32;96835.13;;;16.12;32.54
44079;BME280;29744;49.078;12.878;2023-04-05T06:53:32;96834.19;;;16.08;32.70
44079;BME280;29744;49.078;12.878;2023-04-05T06:58:32;96829.75;;;16.03;32.37
44079;BME280;29744;49.078;12.878;2023-04-05T07:03:33;96832.31;;;16.00;32.65
44079;BME280;29744;49.078;12.878;2023-04-05T07:08:33;96831.34;;;15.96;32.99
44079;BME280;29744;49.078;12.878;2023-04-05T07:13:33;96825.00;;;15.92;32.52
44079;BME280;29744;49.078;12.878;2023-04-05T07:18:33;96823.28;;;15.87;32.71
44079;BME280;29744;49.078;12.878;2023-04-05T07:23:34;96825.81;;;15.84;32.68
44079;BME280;29744;49.078;12.878;2023-04-05T07:28:34;96816.78;;;15.80;32.97
44079;BME280;29744;49.078;12.878;2023-04-05T07:33:35;96823.13;;;15.75;32.98
44079;BME280;29744;49.078;12.878;2023-04-05T07:38:35;96815.16;;;15.70;32.78
44079;BME280;29744;49.078;12.878;2023-04-05T07:43:35;96811.19;;;15.67;32.71
44079;BME280;29744;49.078;12.878;2023-04-05T07:48:35;96816.47;;;15.64;32.88
44079;BME280;29744;49.078;12.878;2023-04-05T07:53:36;96814.72;;;15.59;32.68
44079;BME280;29744;49.078;12.878;2023-04-05T07:58:37;96803.75;;;15.56;32.65
44079;BME280;29744;49.078;12.878;2023-04-05T08:03:40;96812.81;;;15.51;32.40
44079;BME280;29744;49.078;12.878;2023-04-05T08:08:40;96805.69;;;15.46;32.40
44079;BME280;29744;49.078;12.878;2023-04-05T08:13:41;96810.94;;;15.43;32.55
44079;BME280;29744;49.078;12.878;2023-04-05T08:18:41;96802.66;;;15.39;32.11
44079;BME280;29744;49.078;12.878;2023-04-05T08:23:42;96797.91;;;15.36;32.38
44079;BME280;29744;49.078;12.878;2023-04-05T08:28:42;96792.34;;;15.33;32.49
44079;BME280;29744;49.078;12.878;2023-04-05T08:33:43;96792.19;;;15.29;32.27
44079;BME280;29744;49.078;12.878;2023-04-05T08:38:43;96776.94;;;15.25;32.85
44079;BME280;29744;49.078;12.878;2023-04-05T08:43:54;96784.88;;;15.21;32.67
44079;BME280;29744;49.078;12.878;2023-04-05T08:48:57;96779.81;;;15.20;32.79
44079;BME280;29744;49.078;12.878;2023-04-05T08:53:58;96770.44;;;15.17;32.69
44079;BME280;29744;49.078;12.878;2023-04-05T08:59:05;96766.78;;;15.13;32.77
44079;BME280;29744;49.078;12.878;2023-04-05T09:04:09;96769.31;;;15.09;32.77
44079;BME280;29744;49.078;12.878;2023-04-05T09:09:11;96772.66;;;15.06;33.04
44079;BME280;29744;49.078;12.878;2023-04-05T09:14:13;96772.19;;;15.04;32.67
44079;BME280;29744;49.078;12.878;2023-04-05T09:19:14;96770.88;;;15.02;33.06
44079;BME280;29744;49.078;12.878;2023-04-05T09:24:28;96766.44;;;14.97;32.97
44079;BME280;29744;49.078;12.878;2023-04-05T09:29:29;96771.34;;;14.95;32.92
44079;BME280;29744;49.078;12.878;2023-04-05T09:34:30;96760.09;;;14.93;33.32
44079;BME280;29744;49.078;12.878;2023-04-05T09:39:35;96761.81;;;14.89;33.14
44079;BME280;29744;49.078;12.878;2023-04-05T09:44:57;96753.56;;;14.86;33.02
44079;BME280;29744;49.078;12.878;2023-04-05T09:50:23;96761.19;;;14.83;33.10
44079;BME280;29744;49.078;12.878;2023-04-05T09:55:27;96748.31;;;14.80;32.89
44079;BME280;29744;49.078;12.878;2023-04-05T10:00:28;96749.75;;;14.78;33.36
44079;BME280;29744;49.078;12.878;2023-04-05T10:05:30;96745.00;;;14.75;33.32
44079;BME280;29744;49.078;12.878;2023-04-05T10:10:36;96747.22;;;14.73;33.13
44079;BME280;29744;49.078;12.878;2023-04-05T10:15:46;96743.25;;;14.70;33.51
44079;BME280;29744;49.078;12.878;2023-04-05T10:20:49;96744.34;;;14.69;33.29
44079;BME280;29744;49.078;12.878;2023-04-05T10:30:54;96720.22;;;14.64;33.09
44079;BME280;29744;49.078;12.878;2023-04-05T10:36:11;96725.44;;;14.61;33.13
44079;BME280;29744;49.078;12.878;2023-04-05T10:41:16;96716.88;;;14.59;33.51
44079;BME280;29744;49.078;12.878;2023-04-05T10:46:20;96714.50;;;14.57;33.24
44079;BME280;29744;49.078;12.878;2023-04-05T10:51:24;96712.13;;;14.56;33.46
44079;BME280;29744;49.078;12.878;2023-04-05T10:56:29;96715.13;;;14.54;33.56
44079;BME280;29744;49.078;12.878;2023-04-05T11:01:30;96707.34;;;14.53;33.29
44079;BME280;29744;49.078;12.878;2023-04-05T11:06:31;96703.38;;;14.50;33.60
44079;BME280;29744;49.078;12.878;2023-04-05T11:11:40;96706.38;;;14.48;33.69
44079;BME280;29744;49.078;12.878;2023-04-05T11:16:45;96704.00;;;14.47;33.75
44079;BME280;29744;49.078;12.878;2023-04-05T11:21:46;96694.31;;;14.46;33.43
44079;BME280;29744;49.078;12.878;2023-04-05T11:31:57;96694.97;;;14.43;33.61
44079;BME280;29744;49.078;12.878;2023-04-05T11:37:00;96684.47;;;14.41;33.46
44079;BME280;29744;49.078;12.878;2023-04-05T11:42:02;96681.63;;;14.38;33.56
44079;BME280;29744;49.078;12.878;2023-04-05T11:47:03;96684.31;;;14.38;33.53
44079;BME280;29744;49.078;12.878;2023-04-05T11:52:17;96676.53;;;14.36;33.68
44079;BME280;29744;49.078;12.878;2023-04-05T11:57:19;96672.25;;;14.35;33.69
44079;BME280;29744;49.078;12.878;2023-04-05T12:02:20;96672.25;;;14.35;33.68
44079;BME280;29744;49.078;12.878;2023-04-05T12:07:24;96670.34;;;14.36;33.71
44079;BME280;29744;49.078;12.878;2023-04-05T12:12:26;96670.34;;;14.36;34.10
44079;BME280;29744;49.078;12.878;2023-04-05T12:17:46;96675.28;;;14.34;33.74
44079;BME280;29744;49.078;12.878;2023-04-05T12:22:48;96670.97;;;14.33;33.77
44079;BME280;29744;49.078;12.878;2023-04-05T12:27:49;96664.78;;;14.32;33.78
44079;BME280;29744;49.078;12.878;2023-04-05T12:32:50;96667.81;;;14.31;33.56
44079;BME280;29744;49.078;12.878;2023-04-05T12:37:51;96662.41;;;14.31;33.46
44079;BME280;29744;49.078;12.878;2023-04-05T12:42:52;96668.44;;;14.28;34.11
44079;BME280;29744;49.078;12.878;2023-04-05T12:47:58;96662.56;;;14.26;33.70
44079;BME280;29744;49.078;12.878;2023-04-05T12:53:05;96665.59;;;14.24;33.99
44079;BME280;29744;49.078;12.878;2023-04-05T12:58:06;96660.97;;;14.25;33.92
44079;BME280;29744;49.078;12.878;2023-04-05T13:03:19;96647.00;;;14.23;33.90
44079;BME280;29744;49.078;12.878;2023-04-05T13:08:19;96655.91;;;14.23;34.06
44079;BME280;29744;49.078;12.878;2023-04-05T13:13:20;96643.53;;;14.22;34.01
44079;BME280;29744;49.078;12.878;2023-04-05T13:18:20;96649.19;;;14.21;33.62
44079;BME280;29744;49.078;12.878;2023-04-05T13:23:20;96641.91;;;14.21;33.82
44079;BME280;29744;49.078;12.878;2023-04-05T13:28:21;96629.53;;;14.20;34.01
44079;BME280;29744;49.078;12.878;2023-04-05T13:33:21;96640.31;;;14.20;34.25
44079;BME280;29744;49.078;12.878;2023-04-05T13:38:21;96627.16;;;14.18;34.18
44079;BME280;29744;49.078;12.878;2023-04-05T13:43:21;96630.94;;;14.17;34.26
44079;BME280;29744;49.078;12.878;2023-04-05T13:48:22;96627.78;;;14.15;33.77
44079;BME280;29744;49.078;12.878;2023-04-05T13:53:22;96623.50;;;14.14;33.98
44079;BME280;29744;49.078;12.878;2023-04-05T13:58:22;96614.94;;;14.12;34.19
44079;BME280;29744;49.078;12.878;2023-04-05T14:03:23;96609.84;;;14.11;34.11
44079;BME280;29744;49.078;12.878;2023-04-05T14:08:23;96611.75;;;14.10;34.18
44079;BME280;29744;49.078;12.878;2023-04-05T14:13:24;96608.25;;;14.10;34.07
44079;BME280;29744;49.078;12.878;2023-04-05T14:18:24;96605.88;;;14.08;34.07
44079;BME280;29744;49.078;12.878;2023-04-05T14:23:25;96604.28;;;14.07;34.31
44079;BME280;29744;49.078;12.878;2023-04-05T14:28:26;96602.72;;;14.06;34.01
44079;BME280;29744;49.078;12.878;2023-04-05T14:33:26;96601.91;;;14.06;34.08
44079;BME280;29744;49.078;12.878;2023-04-05T14:38:26;96592.25;;;14.05;34.43
44079;BME280;29744;49.078;12.878;2023-04-05T14:43:27;96593.81;;;14.06;34.42
44079;BME280;29744;49.078;12.878;2023-04-05T14:48:27;96585.72;;;14.06;34.08
44079;BME280;29744;49.078;12.878;2023-04-05T14:53:29;96600.66;;;14.03;34.22
44079;BME280;29744;49.078;12.878;2023-04-05T14:58:29;96594.47;;;14.03;33.89
44079;BME280;29744;49.078;12.878;2023-04-05T15:03:32;96589.84;;;14.03;34.17
44079;BME280;29744;49.078;12.878;2023-04-05T15:08:32;96585.56;;;14.02;34.15
44079;BME280;29744;49.078;12.878;2023-04-05T15:13:33;96588.28;;;14.02;33.97
44079;BME280;29744;49.078;12.878;2023-04-05T15:18:33;96590.66;;;14.04;34.12
44079;BME280;29744;49.078;12.878;2023-04-05T15:23:33;96584.78;;;14.10;34.08
44079;BME280;29744;49.078;12.878;2023-04-05T15:28:34;96587.00;;;14.17;33.89
44079;BME280;29744;49.078;12.878;2023-04-05T15:33:34;96584.34;;;14.26;34.14
44079;BME280;29744;49.078;12.878;2023-04-05T15:38:34;96581.00;;;14.37;33.97
44079;BME280;29744;49.078;12.878;2023-04-05T15:43:36;96582.72;;;14.50;33.96
44079;BME280;29744;49.078;12.878;2023-04-05T15:48:36;96584.94;;;14.66;34.34
44079;BME280;29744;49.078;12.878;2023-04-05T15:53:37;96584.75;;;14.79;34.06
44079;BME280;29744;49.078;12.878;2023-04-05T15:58:37;96576.13;;;14.95;33.70
44079;BME280;29744;49.078;12.878;2023-04-05T16:03:38;96581.03;;;15.10;33.92
44079;BME280;29744;49.078;12.878;2023-04-05T16:08:38;96575.88;;;15.26;33.43
44079;BME280;29744;49.078;12.878;2023-04-05T16:13:38;96577.72;;;15.42;33.51
44079;BME280;29744;49.078;12.878;2023-04-05T16:18:38;96575.25;;;15.58;33.65
44079;BME280;29744;49.078;12.878;2023-04-05T16:23:39;96578.16;;;15.74;33.17
44079;BME280;29744;49.078;12.878;2023-04-05T16:28:39;96574.91;;;15.89;33.44
44079;BME280;29744;49.078;12.878;2023-04-05T16:33:40;96580.53;;;16.05;33.52
44079;BME280;29744;49.078;12.878;2023-04-05T16:38:40;96583.78;;;16.19;32.99
44079;BME280;29744;49.078;12.878;2023-04-05T16:43:41;96583.50;;;16.33;33.27
44079;BME280;29744;49.078;12.878;2023-04-05T16:48:42;96584.69;;;16.44;32.73
44079;BME280;29744;49.078;12.878;2023-04-05T16:53:42;96578.56;;;16.56;32.74
44079;BME280;29744;49.078;12.878;2023-04-05T16:58:42;96583.91;;;16.64;32.74
44079;BME280;29744;49.078;12.878;2023-04-05T17:03:43;96581.91;;;16.73;32.48
44079;BME280;29744;49.078;12.878;2023-04-05T17:08:46;96575.94;;;16.80;32.95
44079;BME280;29744;49.078;12.878;2023-04-05T17:13:46;96580.34;;;16.85;32.27
44079;BME280;29744;49.078;12.878;2023-04-05T17:18:46;96576.97;;;16.88;32.55
44079;BME280;29744;49.078;12.878;2023-04-05T17:23:47;96584.78;;;16.89;32.44
44079;BME280;29744;49.078;12.878;2023-04-05T17:28:47;96587.47;;;16.89;32.43
44079;BME280;29744;49.078;12.878;2023-04-05T17:33:48;96591.31;;;16.88;32.52
44079;BME280;29744;49.078;12.878;2023-04-05T17:38:48;96592.44;;;16.87;32.52
44079;BME280;29744;49.078;12.878;2023-04-05T17:43:48;96596.59;;;16.85;32.32
44079;BME280;29744;49.078;12.878;2023-04-05T17:48:49;96611.28;;;16.84;32.19
44079;BME280;29744;49.078;12.878;2023-04-05T17:53:49;96608.09;;;16.82;32.72
44079;BME280;29744;49.078;12.878;2023-04-05T17:58:49;96618.16;;;16.81;32.51
44079;BME280;29744;49.078;12.878;2023-04-05T18:03:50;96613.06;;;16.80;32.72
44079;BME280;29744;49.078;12.878;2023-04-05T18:08:50;96611.94;;;16.81;32.51
44079;BME280;29744;49.078;12.878;2023-04-05T18:13:50;96618.16;;;16.81;32.79
44079;BME280;29744;49.078;12.878;2023-04-05T18:18:51;96625.16;;;16.82;32.18
44079;BME280;29744;49.078;12.878;2023-04-05T18:23:51;96631.81;;;16.85;32.42
44079;BME280;29744;49.078;12.878;2023-04-05T18:28:52;96638.81;;;16.86;32.29
44079;BME280;29744;49.078;12.878;2023-04-05T18:33:58;96650.13;;;16.88;32.51
44079;BME280;29744;49.078;12.878;2023-04-05T18:39:05;96646.94;;;16.86;32.63
44079;BME280;29744;49.078;12.878;2023-04-05T18:44:05;96657.78;;;16.86;32.58
44079;BME280;29744;49.078;12.878;2023-04-05T18:49:05;96663.53;;;16.84;32.51
44079;BME280;29744;49.078;12.878;2023-04-05T18:54:06;96665.44;;;16.84;32.43
44079;BME280;29744;49.078;12.878;2023-04-05T18:59:06;96671.19;;;16.82;32.34
44079;BME280;29744;49.078;12.878;2023-04-05T19:04:06;96672.97;;;16.78;32.36
44079;BME280;29744;49.078;12.878;2023-04-05T19:09:07;96685.28;;;16.76;32.09
44079;BME280;29744;49.078;12.878;2023-04-05T19:14:07;96676.22;;;16.71;32.78
44079;BME280;29744;49.078;12.878;2023-04-05T19:19:07;96687.72;;;16.68;32.53
44079;BME280;29744;49.078;12.878;2023-04-05T19:24:07;96686.81;;;16.64;32.56
44079;BME280;29744;49.078;12.878;2023-04-05T19:29:09;96689.72;;;16.59;32.79
44079;BME280;29744;49.078;12.878;2023-04-05T19:34:09;96695.78;;;16.56;32.52
44079;BME280;29744;49.078;12.878;2023-04-05T19:39:10;96702.94;;;16.52;32.60
44079;BME280;29744;49.078;12.878;2023-04-05T19:44:11;96694.69;;;16.49;32.90
44079;BME280;29744;49.078;12.878;2023-04-05T19:49:12;96699.66;;;16.47;32.73
44079;BME280;29744;49.078;12.878;2023-04-05T19:54:13;96700.31;;;16.44;32.67
44079;BME280;29744;49.078;12.878;2023-04-05T19:59:27;96703.69;;;16.40;32.46
44079;BME280;29744;49.078;12.878;2023-04-05T20:04:29;96695.06;;;16.38;32.79
44079;BME280;29744;49.078;12.878;2023-04-05T20:09:35;96706.22;;;16.37;32.46
44079;BME280;29744;49.078;12.878;2023-04-05T20:14:43;96702.56;;;16.33;32.98
44079;BME280;29744;49.078;12.878;2023-04-05T20:19:57;96699.72;;;16.29;32.55
44079;BME280;29744;49.078;12.878;2023-04-05T20:25:10;96700.06;;;16.28;32.71
44079;BME280;29744;49.078;12.878;2023-04-05T20:30:24;96702.97;;;16.23;33.14
44079;BME280;29744;49.078;12.878;2023-04-05T20:35:32;96696.28;;;16.20;33.11
44079;BME280;29744;49.078;12.878;2023-04-05T20:40:33;96688.03;;;16.17;32.92
44079;BME280;29744;49.078;12.878;2023-04-05T20:45:33;96691.41;;;16.14;32.88
44079;BME280;29744;49.078;12.878;2023-04-05T20:50:34;96697.47;;;16.10;33.27
44079;BME280;29744;49.078;12.878;2023-04-05T20:55:34;96703.84;;;16.06;33.21
44079;BME280;29744;49.078;12.878;2023-04-05T21:00:34;96692.91;;;16.02;33.09
44079;BME280;29744;49.078;12.878;2023-04-05T21:05:35;96691.97;;;15.98;33.32
44079;BME280;29744;49.078;12.878;2023-04-05T21:10:35;96694.84;;;15.93;32.80
44079;BME280;29744;49.078;12.878;2023-04-05T21:15:36;96700.91;;;15.90;32.81
44079;BME280;29744;49.078;12.878;2023-04-05T21:20:37;96694.56;;;15.86;33.16
44079;BME280;29744;49.078;12.878;2023-04-05T21:25:37;96687.44;;;15.82;33.14
44079;BME280;29744;49.078;12.878;2023-04-05T21:30:37;96689.97;;;15.78;33.44
44079;BME280;29744;49.078;12.878;2023-04-05T21:35:38;96694.44;;;15.74;33.09
44079;BME280;29744;49.078;12.878;2023-04-05T21:40:38;96695.09;;;15.71;33.50
44079;BME280;29744;49.078;12.878;2023-04-05T21:45:39;96694.94;;;15.67;33.24
44079;BME280;29744;49.078;12.878;2023-04-05T21:50:39;96694.00;;;15.63;32.93
44079;BME280;29744;49.078;12.878;2023-04-05T21:55:39;96690.03;;;15.61;33.35
44079;BME280;29744;49.078;12.878;2023-04-05T22:00:39;96687.50;;;15.56;33.30
44079;BME280;29744;49.078;12.878;2023-04-05T22:05:40;96692.44;;;15.54;33.31
44079;BME280;29744;49.078;12.878;2023-04-05T22:10:40;96690.72;;;15.49;33.39
44079;BME280;29744;49.078;12.878;2023-04-05T22:15:40;96697.09;;;15.44;33.61
44079;BME280;29744;49.078;12.878;2023-04-05T22:20:43;96693.13;;;15.42;33.23
44079;BME280;29744;49.078;12.878;2023-04-05T22:25:43;96701.88;;;15.39;33.47
44079;BME280;29744;49.078;12.878;2023-04-05T22:30:43;96696.31;;;15.35;33.50
44079;BME280;29744;49.078;12.878;2023-04-05T22:35:43;96699.69;;;15.32;33.17
44079;BME280;29744;49.078;12.878;2023-04-05T22:40:44;96698.72;;;15.28;33.61
44079;BME280;29744;49.078;12.878;2023-04-05T22:45:45;96697.78;;;15.24;33.58
44079;BME280;29744;49.078;12.878;2023-04-05T22:50:48;96694.13;;;15.20;33.45
44079;BME280;29744;49.078;12.878;2023-04-05T22:55:49;96695.91;;;15.16;33.46
44079;BME280;29744;49.078;12.878;2023-04-05T23:00:49;96693.84;;;15.13;33.34
44079;BME280;29744;49.078;12.878;2023-04-05T23:05:50;96691.31;;;15.08;33.93
44079;BME280;29744;49.078;12.878;2023-04-05T23:10:51;96694.66;;;15.05;33.93
44079;BME280;29744;49.078;12.878;2023-04-05T23:15:51;96694.16;;;15.03;33.68
44079;BME280;29744;49.078;12.878;2023-04-05T23:20:51;96690.19;;;15.00;33.73
44079;BME280;29744;49.078;12.878;2023-04-05T23:25:52;96690.81;;;14.97;33.97
44079;BME280;29744;49.078;12.878;2023-04-05T23:30:52;96697.97;;;14.93;33.85
44079;BME280;29744;49.078;12.878;2023-04-05T23:35:52;96697.50;;;14.91;34.19
44079;BME280;29744;49.078;12.878;2023-04-05T23:40:53;96691.94;;;14.88;33.82
44079;BME280;29744;49.078;12.878;2023-04-05T23:45:53;96686.84;;;14.86;34.21
44079;BME280;29744;49.078;12.878;2023-04-05T23:50:53;96684.00;;;14.82;33.78
44079;BME280;29744;49.078;12.878;2023-04-05T23:55:53;96681.16;;;14.79;33.88
